Terminal Aerodrome Forecast
Issued by NWS Sterling, VA

Home | Current Version | Previous Version | Text Only | Print | Product List | Glossary On
Versions: 1 2 3 4 5 6 7 8 9 10 11 12 13 14 15 16 17
000
FTUS41 KLWX 212300 RRA
TAFMRB
TAF
KMRB 212347Z 2200/2224 17004KT P6SM SCT030 OVC050
     FM220300 00000KT 5SM BR BKN090
     FM220900 VRB03KT 1/2SM FG BKN120
     FM221200 VRB03KT 1SM BR BKN120
     FM221400 VRB03KT P6SM BKN120
     FM221800 VRB03KT P6SM VCTS SCT030CB BKN110=

USA.gov is the U.S. government's official web portal to all federal, state and local government web resources and services.